Terminal Aerodrome Forecast
Issued by NWS

Current Version | Previous Version | Text Only | Print | Product List | Glossary Off
Versions: 1 2 3 4 5 6 7 8 9 10 11 12 13 14 15 16 17 18 19 20 21 22

000
FTUS41 KRLX 021500 AAA
TAFCKB
TAF AMD
KCKB 021527Z 0215/0312 28009KT P6SM BKN020 BKN250
     FM022100 28006KT P6SM SCT025
     FM030800 VRB02KT P6SM BKN200=

USA.gov is the U.S. government's official web portal to all federal, state and local government web resources and services.